Terminal Aerodrome Forecast
Issued by NWS Springfield, MO

Home | Current Version | Previous Version | Text Only | Print | Product List | Glossary On
Versions: 1 2 3 4 5 6 7 8 9 10 11 12 13 14 15 16 17 18 19 20 21
000
FTUS43 KSGF 251841 AAD
TAFSGF
TAF AMD
KSGF 251841Z 2519/2618 26012KT 5SM -SHRA BR OVC005
     FM252100 25010KT P6SM VCSH OVC008
     FM260000 27009KT P6SM OVC010
     FM260500 27007KT P6SM OVC008
     FM261400 25006KT P6SM OVC010
     FM261600 24006KT P6SM BKN020
     FM261700 25006KT P6SM BKN035=

USA.gov is the U.S. government's official web portal to all federal, state and local government web resources and services.